This is the latest recevied weather packets stored in our database for station/object KE6LRO. If no packets are shown the sender has not sent any weather packets the latest 10 day(s).
| Time | Temp. | Humidity | Pressure | Rain* | Wind** | Luminosity | Snow |
|---|---|---|---|---|---|---|---|
| 1778136310 | 10.56° C | 75% | 1016.6 hPa | 0 mm | - | 0 W/m² | - |
| 1778136008 | 10.56° C | 75% | 1016.7 hPa | 0 mm | - | 0 W/m² | - |
| 1778135704 | 10.56° C | 72% | 1016.6 hPa | 0 mm | - | 0 W/m² | - |
| 1778135402 | 10.56° C | 72% | 1016.6 hPa | 0 mm | - | 0 W/m² | - |
| 1778135099 | 11.11° C | 74% | 1016.6 hPa | 0 mm | - | 0 W/m² | - |
| 1778134796 | 11.11° C | 71% | 1016.5 hPa | 0 mm | - | 0 W/m² | - |
| 1778134494 | 11.67° C | 71% | 1016.5 hPa | 0 mm | - | 0 W/m² | - |
| 1778134192 | 11.67° C | 71% | 1016.4 hPa | 0 mm | - | 0 W/m² | - |
| 1778133889 | 12.78° C | 70% | 1016.5 hPa | 0 mm | - | 0 W/m² | - |
| 1778133585 | 11.67° C | 67% | 1016.5 hPa | 0 mm | - | 0 W/m² | - |
| 1778133280 | 12.22° C | 66% | 1016.6 hPa | 0 mm | - | 0 W/m² | - |
| 1778132978 | 12.22° C | 66% | 1016.5 hPa | 0 mm | - | 0 W/m² | - |
| 1778132673 | 12.78° C | 65% | 1016.5 hPa | 0 mm | - | 0 W/m² | - |
| 1778132371 | 12.78° C | 64% | 1016.7 hPa | 0 mm | - | 0 W/m² | - |
| 1778132068 | 13.33° C | 65% | 1016.5 hPa | 0 mm | - | 0 W/m² | - |
| 1778131767 | 13.89° C | 57% | 1016.4 hPa | 0 mm | - | 0 W/m² | - |
| 1778131464 | 14.44° C | 57% | 1016.6 hPa | 0 mm | - | 0 W/m² | - |
| 1778131161 | 12.78° C | 57% | 1016.4 hPa | 0 mm | - | 0 W/m² | - |
| 1778130859 | 13.33° C | 61% | 1016.5 hPa | 0 mm | - | 0 W/m² | - |
| 1778130555 | 14.44° C | 57% | 1016.7 hPa | 0 mm | - | 0 W/m² | - |
| 1778130252 | 14.44° C | 57% | 1016.6 hPa | 0 mm | - | 0 W/m² | - |
| 1778129949 | 16.67° C | 50% | 1016.4 hPa | 0 mm | - | 0 W/m² | - |
| 1778129645 | 15° C | 56% | 1016.7 hPa | 0 mm | - | 0 W/m² | - |
| 1778129343 | 16.11° C | 51% | 1016.6 hPa | 0 mm | - | 0 W/m² | - |
| 1778129039 | 15° C | 54% | 1016.5 hPa | 0 mm | - | 0 W/m² | - |
* Rain latest hour (hover to see other rain measurements)
** Current wind speed in m/s (hover to see current wind gust speed)